createdAt,value
2018-09-08T00:00:23.320Z,12.20
2018-09-08T00:03:47.950Z,12.20
2018-09-08T00:07:17.547Z,12.20
2018-09-08T00:10:42.030Z,12.10
2018-09-08T00:14:06.479Z,12.10
2018-09-08T00:17:36.264Z,12.10
2018-09-08T00:21:05.781Z,12.00
2018-09-08T00:24:35.466Z,12.00
2018-09-08T00:29:04.664Z,12.00
2018-09-08T00:32:29.091Z,12.00
2018-09-08T00:35:53.494Z,12.00
2018-09-08T00:39:17.904Z,12.00
2018-09-08T00:42:42.332Z,11.90
2018-09-08T00:46:07.124Z,11.90
2018-09-08T00:49:31.570Z,11.90
2018-09-08T00:52:56.005Z,11.80
2018-09-08T00:56:20.471Z,11.80
2018-09-08T00:59:44.940Z,11.80
2018-09-08T01:03:09.436Z,11.70
2018-09-08T01:06:33.885Z,11.70
2018-09-08T01:09:59.808Z,11.70
2018-09-08T01:13:24.284Z,11.70
2018-09-08T01:16:48.702Z,11.60
2018-09-08T01:20:13.097Z,11.60
2018-09-08T01:23:37.909Z,11.60
2018-09-08T01:27:02.369Z,11.60
2018-09-08T01:30:26.781Z,11.50
2018-09-08T01:33:51.307Z,11.50
2018-09-08T01:37:15.744Z,11.60
2018-09-08T01:40:40.234Z,11.80
2018-09-08T01:44:04.684Z,11.80
2018-09-08T01:47:29.187Z,11.80
2018-09-08T01:50:54.619Z,11.90
2018-09-08T01:54:19.060Z,12.00
2018-09-08T01:57:43.565Z,12.00
2018-09-08T02:01:07.987Z,12.10
2018-09-08T02:04:32.392Z,12.20
2018-09-08T02:07:56.829Z,12.10
2018-09-08T02:11:21.293Z,12.00
2018-09-08T02:14:45.755Z,11.90
2018-09-08T02:18:10.203Z,11.80
2018-09-08T02:21:34.665Z,11.70
2018-09-08T02:24:59.146Z,11.70
2018-09-08T02:28:23.701Z,11.70
2018-09-08T02:31:48.144Z,11.70
2018-09-08T02:35:12.575Z,11.80
2018-09-08T02:38:37.044Z,11.90
2018-09-08T02:42:01.489Z,11.90
2018-09-08T02:45:25.947Z,11.80
2018-09-08T02:48:50.379Z,11.80
2018-09-08T02:52:13.153Z,11.70
2018-09-08T02:55:36.298Z,11.60
2018-09-08T02:58:59.055Z,11.50
2018-09-08T03:02:21.838Z,11.40
2018-09-08T03:05:44.614Z,11.40
2018-09-08T03:09:07.390Z,11.40
2018-09-08T03:12:30.165Z,11.30
2018-09-08T03:15:52.939Z,11.30
2018-09-08T03:19:15.749Z,11.20
2018-09-08T03:22:38.516Z,11.10
2018-09-08T03:26:01.285Z,11.10
2018-09-08T03:29:24.057Z,11.00
2018-09-08T03:32:46.830Z,11.00
2018-09-08T03:36:09.592Z,11.00
2018-09-08T03:39:32.344Z,10.90
2018-09-08T03:42:55.125Z,10.90
2018-09-08T03:46:17.913Z,11.00
2018-09-08T03:49:40.695Z,10.90
2018-09-08T03:53:03.476Z,10.80
2018-09-08T03:56:26.230Z,10.80
2018-09-08T03:59:49.013Z,10.80
2018-09-08T04:03:13.471Z,10.90
2018-09-08T04:06:37.933Z,10.90
2018-09-08T04:10:02.351Z,10.90
2018-09-08T04:13:26.801Z,10.80
2018-09-08T04:16:51.242Z,10.80
2018-09-08T04:20:15.690Z,10.80
2018-09-08T04:23:40.105Z,10.90
2018-09-08T04:27:04.537Z,10.90
2018-09-08T04:30:29.023Z,10.90
2018-09-08T04:33:53.464Z,10.80
2018-09-08T04:37:17.904Z,10.70
2018-09-08T04:40:42.417Z,10.70
2018-09-08T04:44:06.912Z,10.70
2018-09-08T04:47:31.415Z,10.70
2018-09-08T04:50:55.832Z,10.70
2018-09-08T04:54:20.275Z,10.70
2018-09-08T04:57:45.015Z,10.60
2018-09-08T05:01:09.460Z,10.60
2018-09-08T05:04:33.902Z,10.60
2018-09-08T05:07:58.342Z,10.70
2018-09-08T05:11:22.745Z,10.60
2018-09-08T05:14:47.207Z,10.70
2018-09-08T05:18:11.764Z,10.70
2018-09-08T05:21:36.182Z,10.70
2018-09-08T05:25:00.654Z,10.80
2018-09-08T05:28:25.144Z,10.80
2018-09-08T05:31:49.521Z,10.80
2018-09-08T05:35:13.949Z,10.80
2018-09-08T05:38:38.364Z,10.90
2018-09-08T05:42:02.787Z,10.90
2018-09-08T05:45:27.208Z,10.90
2018-09-08T05:48:51.720Z,11.00
2018-09-08T05:52:16.799Z,11.00
2018-09-08T05:55:41.222Z,11.00
2018-09-08T05:59:05.621Z,11.10
2018-09-08T06:02:30.116Z,11.10
2018-09-08T06:05:54.532Z,11.10
2018-09-08T06:09:19.109Z,11.20
2018-09-08T06:12:43.562Z,11.20
2018-09-08T06:16:08.262Z,11.30
2018-09-08T06:19:32.914Z,11.30
2018-09-08T06:22:57.397Z,11.40
2018-09-08T06:26:21.859Z,11.40
2018-09-08T06:29:46.356Z,11.50
2018-09-08T06:33:10.841Z,11.60
2018-09-08T06:36:35.342Z,11.60
2018-09-08T06:39:59.836Z,11.80
2018-09-08T06:43:24.244Z,11.80
2018-09-08T06:46:48.673Z,11.90
2018-09-08T06:50:13.185Z,12.00
2018-09-08T06:53:37.713Z,12.10
2018-09-08T06:57:02.199Z,12.20
2018-09-08T07:00:26.696Z,12.30
2018-09-08T07:03:51.240Z,12.40
2018-09-08T07:07:15.822Z,12.50
2018-09-08T07:10:40.256Z,12.60
2018-09-08T07:14:05.754Z,12.80
2018-09-08T07:17:30.192Z,12.90
2018-09-08T07:20:54.601Z,13.00
2018-09-08T07:24:19.052Z,13.20
2018-09-08T07:27:43.598Z,13.30
2018-09-08T07:31:08.182Z,13.50
2018-09-08T07:34:32.735Z,13.50
2018-09-08T07:37:57.888Z,13.70
2018-09-08T07:41:22.380Z,13.80
2018-09-08T07:44:47.017Z,13.90
2018-09-08T07:48:11.496Z,14.10
2018-09-08T07:51:36.028Z,14.20
2018-09-08T07:55:00.548Z,14.40
2018-09-08T07:58:24.955Z,14.50
2018-09-08T08:01:49.415Z,14.60
2018-09-08T08:05:13.881Z,14.80
2018-09-08T08:08:38.318Z,15.00
2018-09-08T08:12:02.834Z,15.10
2018-09-08T08:15:27.314Z,15.30
2018-09-08T08:18:51.741Z,15.40
2018-09-08T08:22:16.197Z,15.40
2018-09-08T08:25:40.634Z,15.50
2018-09-08T08:29:05.084Z,15.60
2018-09-08T08:32:29.516Z,15.60
2018-09-08T08:35:53.948Z,15.70
2018-09-08T08:39:18.443Z,15.80
2018-09-08T08:42:43.067Z,16.00
2018-09-08T08:46:07.687Z,16.20
2018-09-08T08:49:32.141Z,16.40
2018-09-08T08:53:13.665Z,16.50
2018-09-08T08:56:38.117Z,16.70
2018-09-08T09:00:02.565Z,17.00
2018-09-08T09:03:26.986Z,17.00
2018-09-08T09:06:51.471Z,16.90
2018-09-08T09:10:15.881Z,16.90
2018-09-08T09:13:40.283Z,17.00
2018-09-08T09:17:04.839Z,17.10
2018-09-08T09:20:46.139Z,17.30
2018-09-08T09:25:05.281Z,17.30
2018-09-08T09:28:29.589Z,17.50
2018-09-08T09:31:54.013Z,17.70
2018-09-08T09:35:19.821Z,17.80
2018-09-08T09:38:44.306Z,17.90
2018-09-08T09:42:09.051Z,18.10
2018-09-08T09:45:33.460Z,18.10
2018-09-08T09:48:57.885Z,18.10
2018-09-08T09:52:22.346Z,18.20
2018-09-08T09:55:46.765Z,18.50
2018-09-08T09:59:11.171Z,19.60
2018-09-08T10:02:45.510Z,20.60
2018-09-08T10:06:09.932Z,21.50
2018-09-08T10:09:34.597Z,21.80
2018-09-08T10:12:59.043Z,22.20
2018-09-08T10:16:23.500Z,21.40
2018-09-08T10:19:47.924Z,20.90
2018-09-08T10:23:12.467Z,21.10
2018-09-08T10:26:36.809Z,20.40
2018-09-08T10:30:02.036Z,19.60
2018-09-08T10:33:26.019Z,19.50
2018-09-08T10:36:50.575Z,19.30
2018-09-08T10:40:15.037Z,18.90
2018-09-08T10:43:39.444Z,19.20
2018-09-08T10:47:03.884Z,20.50
2018-09-08T10:50:28.318Z,21.60
2018-09-08T10:53:52.723Z,22.70
2018-09-08T10:57:17.355Z,23.60
2018-09-08T11:00:41.877Z,23.70
2018-09-08T11:04:06.701Z,24.00
2018-09-08T11:07:31.582Z,24.40
2018-09-08T11:10:56.048Z,25.00
2018-09-08T11:14:20.505Z,25.00
2018-09-08T11:17:44.949Z,24.60
2018-09-08T11:21:09.432Z,25.20
2018-09-08T11:24:33.886Z,25.20
2018-09-08T11:27:58.522Z,25.00
2018-09-08T11:31:23.004Z,23.50
2018-09-08T11:34:48.673Z,22.80
2018-09-08T11:38:13.190Z,23.60
2018-09-08T11:41:38.557Z,24.90
2018-09-08T11:45:02.992Z,24.90
2018-09-08T11:48:27.407Z,24.40
2018-09-08T11:51:51.869Z,22.60
2018-09-08T11:55:16.272Z,22.60
2018-09-08T11:58:40.732Z,23.10
2018-09-08T12:02:05.220Z,23.20
2018-09-08T12:05:29.626Z,23.40
2018-09-08T12:08:54.129Z,24.50
2018-09-08T12:12:18.550Z,25.80
2018-09-08T12:15:43.016Z,27.20
2018-09-08T12:19:07.523Z,28.20
2018-09-08T12:22:31.932Z,29.90
2018-09-08T12:25:56.357Z,30.00
2018-09-08T12:29:20.838Z,28.50
2018-09-08T12:32:45.285Z,27.00
2018-09-08T12:36:09.780Z,25.20
2018-09-08T12:39:34.213Z,23.90
2018-09-08T12:42:58.631Z,23.10
2018-09-08T12:46:23.114Z,22.90
2018-09-08T12:49:47.531Z,22.80
2018-09-08T12:53:12.085Z,22.80
2018-09-08T12:56:36.656Z,22.80
2018-09-08T13:00:01.102Z,22.70
2018-09-08T13:03:25.553Z,22.90
2018-09-08T13:06:50.019Z,23.20
2018-09-08T13:10:14.540Z,24.60
2018-09-08T13:13:38.955Z,24.70
2018-09-08T13:17:03.360Z,24.20
2018-09-08T13:20:27.805Z,23.30
2018-09-08T13:23:52.282Z,22.60
2018-09-08T13:27:16.766Z,22.40
2018-09-08T13:30:41.224Z,22.30
2018-09-08T13:34:05.641Z,22.20
2018-09-08T13:37:30.149Z,22.30
2018-09-08T13:40:54.613Z,23.50
2018-09-08T13:44:19.075Z,23.80
2018-09-08T13:47:43.477Z,24.20
2018-09-08T13:51:07.908Z,25.10
2018-09-08T13:54:32.338Z,26.80
2018-09-08T13:57:56.798Z,27.80
2018-09-08T14:01:21.202Z,27.80
2018-09-08T14:04:45.605Z,26.90
2018-09-08T14:08:13.744Z,25.70
2018-09-08T14:11:38.182Z,24.60
2018-09-08T14:15:02.837Z,24.00
2018-09-08T14:18:27.279Z,24.00
2018-09-08T14:21:51.712Z,24.50
2018-09-08T14:25:16.156Z,26.10
2018-09-08T14:28:40.645Z,27.90
2018-09-08T14:32:05.027Z,29.30
2018-09-08T14:35:29.425Z,30.00
2018-09-08T14:38:53.858Z,28.70
2018-09-08T14:42:18.290Z,27.40
2018-09-08T14:45:42.698Z,26.20
2018-09-08T14:49:07.150Z,25.00
2018-09-08T14:52:31.600Z,24.10
2018-09-08T14:55:57.504Z,23.40
2018-09-08T14:59:21.963Z,22.90
2018-09-08T15:02:46.403Z,22.70
2018-09-08T15:06:10.843Z,22.70
2018-09-08T15:09:35.241Z,22.40
2018-09-08T15:13:06.267Z,21.80
2018-09-08T15:16:30.683Z,21.60
2018-09-08T15:19:55.314Z,21.50
2018-09-08T15:23:19.740Z,22.00
2018-09-08T15:26:44.170Z,22.40
2018-09-08T15:30:08.588Z,22.60
2018-09-08T15:33:33.009Z,22.40
2018-09-08T15:36:57.453Z,22.40
2018-09-08T15:40:21.879Z,22.40
2018-09-08T15:43:46.359Z,22.20
2018-09-08T15:47:10.773Z,22.00
2018-09-08T15:50:35.235Z,21.50
2018-09-08T15:54:00.227Z,21.20
2018-09-08T15:57:24.637Z,21.00
2018-09-08T16:00:49.061Z,20.70
2018-09-08T16:04:13.612Z,20.70
2018-09-08T16:07:37.983Z,20.70
2018-09-08T16:11:02.456Z,20.60
2018-09-08T16:14:26.989Z,20.50
2018-09-08T16:17:51.356Z,20.20
2018-09-08T16:21:15.790Z,20.10
2018-09-08T16:24:40.215Z,20.00
2018-09-08T16:28:04.693Z,20.00
2018-09-08T16:31:29.110Z,20.00
2018-09-08T16:34:53.489Z,20.00
2018-09-08T16:38:17.966Z,20.10
2018-09-08T16:41:42.433Z,20.20
2018-09-08T16:45:07.023Z,20.10
2018-09-08T16:48:31.483Z,20.10
2018-09-08T16:51:55.965Z,20.00
2018-09-08T16:55:20.309Z,20.00
2018-09-08T16:58:44.745Z,19.90
2018-09-08T17:02:09.182Z,19.90
2018-09-08T17:05:33.704Z,19.90
2018-09-08T17:08:58.081Z,19.90
2018-09-08T17:12:22.516Z,19.80
2018-09-08T17:15:47.518Z,19.80
2018-09-08T17:19:12.016Z,19.80
2018-09-08T17:22:36.459Z,19.80
2018-09-08T17:26:00.894Z,19.70
2018-09-08T17:29:25.286Z,19.50
2018-09-08T17:32:49.669Z,19.50
2018-09-08T17:36:14.119Z,19.40
2018-09-08T17:39:38.500Z,19.30
2018-09-08T17:43:02.892Z,19.10
2018-09-08T17:46:27.291Z,19.00
2018-09-08T17:49:51.731Z,18.90
2018-09-08T17:53:16.114Z,18.90
2018-09-08T17:56:40.604Z,18.80
2018-09-08T18:00:04.277Z,18.60
2018-09-08T18:03:28.716Z,18.50
2018-09-08T18:06:53.221Z,18.40
2018-09-08T18:10:17.682Z,18.40
2018-09-08T18:13:42.081Z,18.30
2018-09-08T18:17:06.642Z,18.30
2018-09-08T18:20:31.123Z,18.20
2018-09-08T18:23:55.555Z,18.20
2018-09-08T18:27:19.943Z,18.10
2018-09-08T18:30:44.355Z,18.00
2018-09-08T18:34:08.835Z,18.10
2018-09-08T18:37:33.326Z,18.00
2018-09-08T18:40:57.772Z,17.90
2018-09-08T18:44:22.303Z,17.90
2018-09-08T18:47:46.757Z,17.80
2018-09-08T18:51:11.339Z,17.70
2018-09-08T18:54:35.796Z,17.60
2018-09-08T18:58:00.250Z,17.50
2018-09-08T19:01:24.693Z,17.40
2018-09-08T19:04:49.114Z,17.40
2018-09-08T19:08:13.580Z,17.40
2018-09-08T19:11:37.995Z,17.40
2018-09-08T19:15:07.697Z,17.30
2018-09-08T19:18:32.142Z,17.30
2018-09-08T19:21:56.576Z,17.20
2018-09-08T19:25:20.995Z,17.20
2018-09-08T19:28:47.833Z,17.10
2018-09-08T19:32:12.480Z,17.00
2018-09-08T19:35:37.694Z,17.00
2018-09-08T19:39:02.455Z,16.90
2018-09-08T19:42:27.009Z,16.90
2018-09-08T19:45:51.555Z,16.90
2018-09-08T19:49:16.054Z,16.80
2018-09-08T19:52:45.768Z,16.80
2018-09-08T19:56:10.215Z,16.80
2018-09-08T19:59:34.699Z,16.70
2018-09-08T20:02:59.155Z,16.80
2018-09-08T20:06:23.690Z,16.70
2018-09-08T20:09:48.222Z,16.70
2018-09-08T20:13:12.678Z,16.70
2018-09-08T20:16:37.094Z,16.60
2018-09-08T20:20:01.558Z,16.50
2018-09-08T20:23:25.982Z,16.40
2018-09-08T20:26:50.583Z,16.40
2018-09-08T20:30:14.815Z,16.30
2018-09-08T20:33:39.256Z,16.30
2018-09-08T20:37:04.157Z,16.30
2018-09-08T20:40:29.246Z,16.20
2018-09-08T20:43:54.389Z,16.10
2018-09-08T20:47:19.576Z,16.10
2018-09-08T20:50:44.337Z,16.10
2018-09-08T20:54:08.766Z,16.00
2018-09-08T20:57:33.285Z,16.00
2018-09-08T21:00:58.275Z,16.00
2018-09-08T21:04:22.678Z,15.90
2018-09-08T21:07:47.562Z,15.90
2018-09-08T21:11:12.518Z,15.80
2018-09-08T21:14:38.578Z,15.80
2018-09-08T21:18:03.009Z,15.70
2018-09-08T21:21:27.534Z,15.70
2018-09-08T21:24:52.104Z,15.80
2018-09-08T21:28:16.489Z,15.70
2018-09-08T21:31:41.031Z,15.70
2018-09-08T21:35:05.493Z,15.70
2018-09-08T21:38:29.975Z,15.60
2018-09-08T21:41:54.474Z,15.60
2018-09-08T21:45:18.963Z,15.60
2018-09-08T21:48:43.375Z,15.50
2018-09-08T21:52:07.809Z,15.60
2018-09-08T21:55:32.225Z,15.50
2018-09-08T21:58:56.807Z,15.50
2018-09-08T22:02:21.187Z,15.50
2018-09-08T22:05:45.591Z,15.50
2018-09-08T22:09:14.864Z,15.50
2018-09-08T22:12:39.621Z,15.40
2018-09-08T22:16:04.843Z,15.30
2018-09-08T22:19:29.166Z,15.30
2018-09-08T22:22:55.048Z,15.30
2018-09-08T22:26:19.519Z,15.30
2018-09-08T22:29:43.962Z,15.30
2018-09-08T22:33:08.452Z,15.20
2018-09-08T22:36:37.864Z,15.10
2018-09-08T22:40:02.479Z,15.10
2018-09-08T22:43:27.137Z,15.00
2018-09-08T22:46:52.555Z,15.00
2018-09-08T22:50:17.184Z,15.00
2018-09-08T22:53:42.959Z,15.10
2018-09-08T22:57:07.405Z,15.10
2018-09-08T23:00:31.870Z,15.10
2018-09-08T23:03:56.245Z,15.10
2018-09-08T23:07:20.645Z,15.30
2018-09-08T23:10:45.064Z,15.30
2018-09-08T23:14:09.486Z,15.30
2018-09-08T23:17:33.904Z,15.30
2018-09-08T23:20:58.303Z,15.30
2018-09-08T23:24:22.715Z,15.30
2018-09-08T23:27:47.292Z,15.30
2018-09-08T23:31:11.673Z,15.30
2018-09-08T23:34:36.129Z,15.40
2018-09-08T23:38:00.537Z,15.40
2018-09-08T23:41:24.945Z,15.50
2018-09-08T23:44:49.370Z,15.60
2018-09-08T23:48:13.777Z,15.60
2018-09-08T23:51:38.258Z,15.70
2018-09-08T23:55:02.641Z,15.70
2018-09-08T23:58:27.056Z,15.70
